CMA CGM Pelleas — DFPH2 — position and weather

sailwx.info

Track history (hours):
 
Tides and Currents Weather Stations Pressure Air Temp Water Temp Dewpoint Dewpoint Depression Visibility Wind Speed Wind Dir Waves Ship Positions

CMA CGM Pelleas

Last reported at 2018-Jul-21 00:00 UTC. Time now 2018-Jul-21 09:36 UTC.
Position N 38°06' W 060°06'.

Length 350 m; draft 11.6 m.

Type: Cargo ship. MMSI: 218846000.

Wind from 200 at 20 knots

Barometer 1025.0 mb
Air temperature 25.0 ° C
Visibility: greater than 5.4 NM
Water temperature 27.0 ° C

Date/timePositionNaut miles runAvg speedWind from/ knotsBaromVisibWave heightAir tempDewpointWater temp
2018-Jul-21 00:00N 38°06' W 060°06'29416.3 200 / 201025.0 5.4 25.0 27.0
2018-Jul-20 06:00N 36°06' W 065°42'10617.7 240 / 181016.5 5.4 23.518.027.0
2018-Jul-20 00:00N 35°06' W 067°30'38015.8 260 / 121016.0 2.2 24.0 27.0
2018-Jul-19 00:00N 32°36' W 074°30'26716.1 200 / 121014.0 5.4 27.0 30.0
2018-Jul-18 07:25N 32°42' W 079°47'614.8
2018-Jul-18 07:01N 32°46' W 079°53'4 7.7
2018-Jul-18 06:30N 32°50' W 079°54'0 0.6
2018-Jul-18 05:58N 32°50' W 079°54'0 0.0
2018-Jul-18 05:30N 32°50' W 079°54'0 0.0
2018-Jul-18 05:00N 32°50' W 079°54'0 0.0
2018-Jul-18 04:30N 32°50' W 079°54'0 0.0
2018-Jul-18 04:00N 32°50' W 079°54'0 0.0
2018-Jul-18 03:30N 32°50' W 079°54'0 0.0
2018-Jul-18 03:00N 32°50' W 079°54'0 0.0
2018-Jul-18 02:30N 32°50' W 079°54'0 0.0
2018-Jul-18 01:59N 32°50' W 079°54'0 0.0
2018-Jul-18 01:30N 32°50' W 079°54'0 0.0
2018-Jul-18 01:00N 32°50' W 079°54'0 0.0
2018-Jul-18 00:30N 32°50' W 079°54'0 0.0
2018-Jul-18 00:00N 32°50' W 079°54'0 0.0
2018-Jul-17 23:30N 32°50' W 079°54'0 0.0
2018-Jul-17 23:00N 32°50' W 079°54'0 0.0
2018-Jul-17 22:30N 32°50' W 079°54'0 0.0
2018-Jul-17 22:00N 32°50' W 079°54'0 0.0
2018-Jul-17 21:30N 32°50' W 079°54'0 0.0
2018-Jul-17 21:00N 32°50' W 079°54'0 0.0
2018-Jul-17 20:30N 32°50' W 079°54'0 0.0
2018-Jul-17 20:00N 32°50' W 079°54'0 0.0
2018-Jul-17 19:30N 32°50' W 079°54'0 0.0
2018-Jul-17 19:00N 32°50' W 079°54'0 0.0
2018-Jul-17 18:30N 32°50' W 079°54'0 0.0
2018-Jul-17 18:00N 32°50' W 079°54'0 0.0
2018-Jul-17 17:30N 32°50' W 079°54'0 0.0
2018-Jul-17 17:00N 32°50' W 079°54'0 0.0
2018-Jul-17 16:30N 32°50' W 079°54'0 0.0
2018-Jul-17 16:00N 32°50' W 079°54'0 0.0
2018-Jul-17 15:30N 32°50' W 079°54'0 0.0
2018-Jul-17 15:00N 32°50' W 079°54'0 0.0
2018-Jul-17 14:30N 32°50' W 079°54'0 0.5
2018-Jul-17 14:00N 32°50' W 079°54'3 6.0
2018-Jul-17 13:30N 32°47' W 079°54'612.7
2018-Jul-17 13:00N 32°43' W 079°48'713.6
2018-Jul-17 12:30N 32°40' W 079°41'61 5.6
2018-Jul-17 01:36N 31°57' W 080°33'211.9
2018-Jul-17 01:28N 31°57' W 080°35'511.7
2018-Jul-17 01:00N 31°57' W 080°41'611.4
2018-Jul-17 00:30N 31°60' W 080°47'9 9.5
2018-Jul-16 23:30N 32°04' W 080°57'4 8.2
2018-Jul-16 23:00N 32°05' W 081°02'4 7.0
2018-Jul-16 22:30N 32°05' W 081°06'3 5.7
2018-Jul-16 22:00N 32°07' W 081°08'1 1.2
2018-Jul-16 21:30N 32°08' W 081°08'0 0.0
2018-Jul-16 20:59N 32°08' W 081°08'0 0.0
2018-Jul-16 20:30N 32°08' W 081°08'0 0.0
2018-Jul-16 19:57N 32°08' W 081°08'0 0.0
2018-Jul-16 19:27N 32°08' W 081°08'0 0.0
2018-Jul-16 18:57N 32°08' W 081°08'0 0.0
2018-Jul-16 18:27N 32°08' W 081°08'0 0.0
2018-Jul-16 17:57N 32°08' W 081°08'0 0.0
2018-Jul-16 17:27N 32°08' W 081°08'0 0.0
2018-Jul-16 16:51N 32°08' W 081°08'0 0.0
2018-Jul-16 16:27N 32°08' W 081°08'0 0.0
2018-Jul-16 15:57N 32°08' W 081°08'0 0.0
2018-Jul-16 15:27N 32°08' W 081°08'0 0.0
2018-Jul-16 14:57N 32°08' W 081°08'0 0.0
2018-Jul-16 14:27N 32°08' W 081°08'0 0.0
2018-Jul-16 13:57N 32°08' W 081°08'0 0.0
2018-Jul-16 13:27N 32°08' W 081°08'0 0.0
2018-Jul-16 12:57N 32°08' W 081°08'0 0.0
2018-Jul-16 12:27N 32°08' W 081°08'0 0.0
2018-Jul-16 11:57N 32°08' W 081°08'0 0.0
2018-Jul-16 11:27N 32°08' W 081°08'0 0.0
2018-Jul-16 10:57N 32°08' W 081°08'0 0.0
2018-Jul-16 10:27N 32°08' W 081°08'0 0.0
2018-Jul-16 09:57N 32°08' W 081°08'0 0.0
2018-Jul-16 09:21N 32°08' W 081°08'0 0.0
2018-Jul-16 08:57N 32°08' W 081°08'0 0.0
2018-Jul-16 08:27N 32°08' W 081°08'0 0.0
2018-Jul-16 07:51N 32°08' W 081°08'0 0.0
2018-Jul-16 07:27N 32°08' W 081°08'0 0.0
2018-Jul-16 06:57N 32°08' W 081°08'0 0.0
2018-Jul-16 06:27N 32°08' W 081°08'0 0.0
2018-Jul-16 05:57N 32°08' W 081°08'0 0.0
2018-Jul-16 05:27N 32°08' W 081°08'0 0.0
2018-Jul-16 04:57N 32°08' W 081°08'0 0.0
2018-Jul-16 04:27N 32°08' W 081°08'0 0.0
2018-Jul-16 03:57N 32°08' W 081°08'0 0.0
2018-Jul-16 03:27N 32°08' W 081°08'0 0.0
2018-Jul-16 02:57N 32°08' W 081°08'0 0.0
2018-Jul-16 02:27N 32°08' W 081°08'0 0.0
2018-Jul-16 01:57N 32°08' W 081°08'0 0.0
2018-Jul-16 01:21N 32°08' W 081°08'0 0.0
2018-Jul-16 00:57N 32°08' W 081°08'0 0.0
2018-Jul-16 00:27N 32°08' W 081°08'0 0.0
2018-Jul-15 23:57N 32°08' W 081°08'0 0.0
2018-Jul-15 23:28N 32°08' W 081°08'0 0.1
2018-Jul-15 23:00N 32°08' W 081°08'0 0.4
2018-Jul-15 22:30N 32°08' W 081°08'2 4.3
2018-Jul-15 21:58N 32°06' W 081°07'2 5.1
2018-Jul-15 21:30N 32°05' W 081°04'4 7.2
2018-Jul-15 21:00N 32°06' W 080°60'5 9.6
2018-Jul-15 20:30N 32°03' W 080°56'3 6.5
2018-Jul-15 20:00N 32°02' W 080°52'510.1
2018-Jul-15 19:30N 31°60' W 080°47'713.5
2018-Jul-15 19:00N 31°57' W 080°40'5 9.2
2018-Jul-15 18:30N 31°56' W 080°34'612.4
2018-Jul-15 18:01N 31°57' W 080°27'714.7
2018-Jul-15 17:30N 31°59' W 080°19'815.0
2018-Jul-15 16:58N 32°01' W 080°09'715.1
2018-Jul-15 16:30N 32°02' W 080°01'915.4
2018-Jul-15 15:56N 32°04' W 079°51'715.7
2018-Jul-15 15:29N 32°05' W 079°43'915.8
2018-Jul-15 14:53N 32°07' W 079°32'815.7
2018-Jul-15 14:24N 32°08' W 079°23'915.6
2018-Jul-15 13:49N 32°10' W 079°13'24817.9
2018-Jul-14 23:59N 34°42' W 075°18'817.2
2018-Jul-14 23:30N 34°48' W 075°11'13613.6
2018-Jul-14 13:27N 36°57' W 076°03'715.0
2018-Jul-14 13:00N 36°60' W 076°11'612.6
2018-Jul-14 12:30N 36°59' W 076°19'4 8.6
2018-Jul-14 12:00N 36°55' W 076°20'3 5.2
2018-Jul-14 11:30N 36°52' W 076°21'0 0.1
2018-Jul-14 11:00N 36°52' W 076°21'0 0.0
2018-Jul-14 10:30N 36°52' W 076°21'0 0.0
2018-Jul-14 10:00N 36°52' W 076°21'0 0.0
2018-Jul-14 09:30N 36°52' W 076°21'0 0.0
2018-Jul-14 09:00N 36°52' W 076°21'0 0.0
2018-Jul-14 08:30N 36°52' W 076°21'0 0.0
2018-Jul-14 08:01N 36°52' W 076°21'0 0.0
2018-Jul-14 07:30N 36°52' W 076°21'0 0.0
2018-Jul-14 07:00N 36°52' W 076°21'0 0.0
2018-Jul-14 06:30N 36°52' W 076°21'0 0.0
2018-Jul-14 06:00N 36°52' W 076°21'0 0.0
2018-Jul-14 05:30N 36°52' W 076°21'0 0.0
2018-Jul-14 05:00N 36°52' W 076°21'0 0.0
2018-Jul-14 04:30N 36°52' W 076°21'0 0.0
2018-Jul-14 04:00N 36°52' W 076°21'0 0.0
2018-Jul-14 03:30N 36°52' W 076°21'0 0.0
2018-Jul-14 03:00N 36°52' W 076°21'0 0.0
2018-Jul-14 02:30N 36°52' W 076°21'0 0.0
2018-Jul-14 02:00N 36°52' W 076°21'0 0.0
2018-Jul-14 01:30N 36°52' W 076°21'0 0.0
2018-Jul-14 01:00N 36°52' W 076°21'0 0.0
2018-Jul-14 00:30N 36°52' W 076°21'0 0.0
2018-Jul-14 00:00N 36°52' W 076°21'0 0.0
2018-Jul-13 23:30N 36°52' W 076°21'0 0.0
2018-Jul-13 23:00N 36°52' W 076°21'0 0.0
2018-Jul-13 22:30N 36°52' W 076°21'0 0.0
2018-Jul-13 22:00N 36°52' W 076°21'0 0.0
2018-Jul-13 21:30N 36°52' W 076°21'0 0.0
2018-Jul-13 21:00N 36°52' W 076°21'0 0.0
2018-Jul-13 20:30N 36°52' W 076°21'0 0.0
2018-Jul-13 20:00N 36°52' W 076°21'0 0.0
2018-Jul-13 19:30N 36°52' W 076°21'0 0.0
2018-Jul-13 19:00N 36°52' W 076°21'0 0.0
2018-Jul-13 18:30N 36°52' W 076°21'0 0.0
2018-Jul-13 18:00N 36°52' W 076°21'0 0.0
2018-Jul-13 17:30N 36°52' W 076°21'0 0.0
2018-Jul-13 16:59N 36°52' W 076°21'0 0.0
2018-Jul-13 16:19N 36°52' W 076°21'0 0.0
2018-Jul-13 16:00N 36°52' W 076°21'0 0.0
2018-Jul-13 15:27N 36°52' W 076°21'0 0.0
2018-Jul-13 15:00N 36°52' W 076°21'0 0.0
2018-Jul-13 14:00N 36°52' W 076°21'0 0.0
2018-Jul-13 13:30N 36°52' W 076°21'0 0.0
2018-Jul-13 13:00N 36°52' W 076°21'0 0.0
2018-Jul-13 12:30N 36°52' W 076°21'0 0.0
2018-Jul-13 12:00N 36°52' W 076°21'0 0.0
2018-Jul-13 11:30N 36°52' W 076°21'0 0.0
2018-Jul-13 10:51N 36°52' W 076°21'0 0.0
2018-Jul-13 10:30N 36°52' W 076°21'0 0.0
2018-Jul-13 10:00N 36°52' W 076°21'0 0.0
2018-Jul-13 09:30N 36°52' W 076°21'0 0.0
2018-Jul-13 09:00N 36°52' W 076°21'0 0.0
2018-Jul-13 08:30N 36°52' W 076°21'0 0.0
2018-Jul-13 08:00N 36°52' W 076°21'0 0.0
2018-Jul-13 07:30N 36°52' W 076°21'0 0.0
2018-Jul-13 07:00N 36°52' W 076°21'0 0.0
2018-Jul-13 06:30N 36°52' W 076°21'0 0.0
2018-Jul-13 06:00N 36°52' W 076°21'0 0.0
2018-Jul-13 05:30N 36°52' W 076°21'0 0.0
2018-Jul-13 05:00N 36°52' W 076°21'0 0.0
2018-Jul-13 04:30N 36°52' W 076°21'0 0.0
2018-Jul-13 04:00N 36°52' W 076°21'0 0.1
2018-Jul-13 03:30N 36°52' W 076°21'1 2.7
2018-Jul-13 03:00N 36°54' W 076°20'4 8.5
2018-Jul-13 02:30N 36°58' W 076°20'612.4
2018-Jul-13 02:00N 37°00' W 076°13'815.6
2018-Jul-13 01:30N 36°58' W 076°04'713.2
2018-Jul-13 01:00N 36°56' W 075°56'4 7.3
2018-Jul-13 00:31N 36°53' W 075°52'79 6.3
2018-Jul-12 11:58N 37°50' W 074°43'2015.4
2018-Jul-12 10:38N 38°08' W 074°30'2415.5
2018-Jul-12 09:07N 38°28' W 074°14'415.4
2018-Jul-12 08:52N 38°32' W 074°13'615.4
2018-Jul-12 08:30N 38°37' W 074°11'815.3
2018-Jul-12 08:00N 38°44' W 074°08'815.3
2018-Jul-12 07:30N 38°52' W 074°06'815.5
2018-Jul-12 07:00N 38°59' W 074°03'815.5
2018-Jul-12 06:30N 39°07' W 074°00'815.4
2018-Jul-12 06:00N 39°14' W 073°57'815.6
2018-Jul-12 05:30N 39°22' W 073°55'815.7
2018-Jul-12 05:00N 39°29' W 073°55'815.5
2018-Jul-12 04:30N 39°37' W 073°54'815.4
2018-Jul-12 03:59N 39°45' W 073°53'715.5
2018-Jul-12 03:30N 39°53' W 073°52'815.7
2018-Jul-12 03:00N 40°01' W 073°51'815.5
2018-Jul-12 02:30N 40°08' W 073°50'1115.7
2018-Jul-12 01:48N 40°19' W 073°49'415.5
2018-Jul-12 01:30N 40°24' W 073°49'611.0
2018-Jul-12 00:59N 40°28' W 073°53'815.5
2018-Jul-12 00:30N 40°32' W 074°01'713.4
2018-Jul-12 00:00N 40°39' W 074°04'4 7.8
2018-Jul-11 23:30N 40°39' W 074°09'1 2.8
2018-Jul-11 23:00N 40°40' W 074°08'0 0.3
2018-Jul-11 22:30N 40°40' W 074°09'0 0.0
2018-Jul-11 22:00N 40°40' W 074°09'0 0.0
2018-Jul-11 21:30N 40°40' W 074°09'0 0.0
2018-Jul-11 21:00N 40°40' W 074°09'0 0.0
2018-Jul-11 20:30N 40°40' W 074°09'0 0.0
2018-Jul-11 20:00N 40°40' W 074°09'0 0.0
2018-Jul-11 19:30N 40°40' W 074°09'0 0.0
2018-Jul-11 19:00N 40°40' W 074°09'0 0.0
2018-Jul-11 18:30N 40°40' W 074°09'0 0.0
2018-Jul-11 18:00N 40°40' W 074°09'0 0.0
2018-Jul-11 17:31N 40°40' W 074°09'0 0.0
2018-Jul-11 17:00N 40°40' W 074°09'0 0.0
2018-Jul-11 16:30N 40°40' W 074°09'0 0.0
2018-Jul-11 16:00N 40°40' W 074°09'0 0.0
2018-Jul-11 15:30N 40°40' W 074°09'0 0.0
2018-Jul-11 15:00N 40°40' W 074°09'0 0.0
2018-Jul-11 14:30N 40°40' W 074°09'0 0.0
2018-Jul-11 14:00N 40°40' W 074°09'0 0.0
2018-Jul-11 13:30N 40°40' W 074°09'0 0.0
2018-Jul-11 13:00N 40°40' W 074°09'0 0.0
2018-Jul-11 12:30N 40°40' W 074°09'0 0.0
2018-Jul-11 12:00N 40°40' W 074°09'0 0.0
2018-Jul-11 11:30N 40°40' W 074°09'0 0.0
2018-Jul-11 11:00N 40°40' W 074°09'0 0.0
2018-Jul-11 10:30N 40°40' W 074°09'0 0.0
2018-Jul-11 10:00N 40°40' W 074°09'0 0.0
2018-Jul-11 09:30N 40°40' W 074°09'0 0.0
2018-Jul-11 09:00N 40°40' W 074°09'0 0.0
2018-Jul-11 08:30N 40°40' W 074°09'0 0.0
2018-Jul-11 08:00N 40°40' W 074°09'0 0.0
2018-Jul-11 07:30N 40°40' W 074°09'0 0.0
2018-Jul-11 07:00N 40°40' W 074°09'0 0.0
2018-Jul-11 06:30N 40°40' W 074°09'0 0.0
2018-Jul-11 06:00N 40°40' W 074°09'0 0.0
2018-Jul-11 05:30N 40°40' W 074°09'0 0.0
2018-Jul-11 05:00N 40°40' W 074°09'0 0.0
2018-Jul-11 04:30N 40°40' W 074°09'0 0.0
2018-Jul-11 04:00N 40°40' W 074°09'0 0.0
2018-Jul-11 03:30N 40°40' W 074°09'0 0.0
2018-Jul-11 03:00N 40°40' W 074°09'0 0.0
2018-Jul-11 02:30N 40°40' W 074°09'0 0.0
2018-Jul-11 02:00N 40°40' W 074°09'0 0.0
2018-Jul-11 01:30N 40°40' W 074°09'0 0.0
2018-Jul-11 01:00N 40°40' W 074°09'0 0.0
2018-Jul-11 00:30N 40°40' W 074°09'0 0.0
2018-Jul-11 00:00N 40°40' W 074°09'  
Track history (hours):
 
Tides and Currents Weather Stations Pressure Air Temp Water Temp Dewpoint Dewpoint Depression Visibility Wind Speed Wind Dir Waves Ship Positions

CMA CGM Pelleas

Last reported at 2018-Jul-21 00:00 UTC. Time now 2018-Jul-21 09:36 UTC.
Position N 38°06' W 060°06'.

Length 350 m; draft 11.6 m.

Type: Cargo ship. MMSI: 218846000.

Wind from 200 at 20 knots

Barometer 1025.0 mb
Air temperature 25.0 ° C
Visibility: greater than 5.4 NM
Water temperature 27.0 ° C

Date/timePositionNaut miles runAvg speedWind from/ knotsBaromVisibWave heightAir tempDewpointWater temp
2018-Jul-21 00:00N 38°06' W 060°06'29416.3 200 / 201025.0 5.4 25.0 27.0
2018-Jul-20 06:00N 36°06' W 065°42'10617.7 240 / 181016.5 5.4 23.518.027.0
2018-Jul-20 00:00N 35°06' W 067°30'38015.8 260 / 121016.0 2.2 24.0 27.0
2018-Jul-19 00:00N 32°36' W 074°30'26716.1 200 / 121014.0 5.4 27.0 30.0
2018-Jul-18 07:25N 32°42' W 079°47'614.8
2018-Jul-18 07:01N 32°46' W 079°53'4 7.7
2018-Jul-18 06:30N 32°50' W 079°54'0 0.6
2018-Jul-18 05:58N 32°50' W 079°54'0 0.0
2018-Jul-18 05:30N 32°50' W 079°54'0 0.0
2018-Jul-18 05:00N 32°50' W 079°54'0 0.0
2018-Jul-18 04:30N 32°50' W 079°54'0 0.0
2018-Jul-18 04:00N 32°50' W 079°54'0 0.0
2018-Jul-18 03:30N 32°50' W 079°54'0 0.0
2018-Jul-18 03:00N 32°50' W 079°54'0 0.0
2018-Jul-18 02:30N 32°50' W 079°54'0 0.0
2018-Jul-18 01:59N 32°50' W 079°54'0 0.0
2018-Jul-18 01:30N 32°50' W 079°54'0 0.0
2018-Jul-18 01:00N 32°50' W 079°54'0 0.0
2018-Jul-18 00:30N 32°50' W 079°54'0 0.0
2018-Jul-18 00:00N 32°50' W 079°54'0 0.0
2018-Jul-17 23:30N 32°50' W 079°54'0 0.0
2018-Jul-17 23:00N 32°50' W 079°54'0 0.0
2018-Jul-17 22:30N 32°50' W 079°54'0 0.0
2018-Jul-17 22:00N 32°50' W 079°54'0 0.0
2018-Jul-17 21:30N 32°50' W 079°54'0 0.0
2018-Jul-17 21:00N 32°50' W 079°54'0 0.0
2018-Jul-17 20:30N 32°50' W 079°54'0 0.0
2018-Jul-17 20:00N 32°50' W 079°54'0 0.0
2018-Jul-17 19:30N 32°50' W 079°54'0 0.0
2018-Jul-17 19:00N 32°50' W 079°54'0 0.0
2018-Jul-17 18:30N 32°50' W 079°54'0 0.0
2018-Jul-17 18:00N 32°50' W 079°54'0 0.0
2018-Jul-17 17:30N 32°50' W 079°54'0 0.0
2018-Jul-17 17:00N 32°50' W 079°54'0 0.0
2018-Jul-17 16:30N 32°50' W 079°54'0 0.0
2018-Jul-17 16:00N 32°50' W 079°54'0 0.0
2018-Jul-17 15:30N 32°50' W 079°54'0 0.0
2018-Jul-17 15:00N 32°50' W 079°54'0 0.0
2018-Jul-17 14:30N 32°50' W 079°54'0 0.5
2018-Jul-17 14:00N 32°50' W 079°54'3 6.0
2018-Jul-17 13:30N 32°47' W 079°54'612.7
2018-Jul-17 13:00N 32°43' W 079°48'713.6
2018-Jul-17 12:30N 32°40' W 079°41'61 5.6
2018-Jul-17 01:36N 31°57' W 080°33'211.9
2018-Jul-17 01:28N 31°57' W 080°35'511.7
2018-Jul-17 01:00N 31°57' W 080°41'611.4
2018-Jul-17 00:30N 31°60' W 080°47'9 9.5
2018-Jul-16 23:30N 32°04' W 080°57'4 8.2
2018-Jul-16 23:00N 32°05' W 081°02'4 7.0
2018-Jul-16 22:30N 32°05' W 081°06'3 5.7
2018-Jul-16 22:00N 32°07' W 081°08'1 1.2
2018-Jul-16 21:30N 32°08' W 081°08'0 0.0
2018-Jul-16 20:59N 32°08' W 081°08'0 0.0
2018-Jul-16 20:30N 32°08' W 081°08'0 0.0
2018-Jul-16 19:57N 32°08' W 081°08'0 0.0
2018-Jul-16 19:27N 32°08' W 081°08'0 0.0
2018-Jul-16 18:57N 32°08' W 081°08'0 0.0
2018-Jul-16 18:27N 32°08' W 081°08'0 0.0
2018-Jul-16 17:57N 32°08' W 081°08'0 0.0
2018-Jul-16 17:27N 32°08' W 081°08'0 0.0
2018-Jul-16 16:51N 32°08' W 081°08'0 0.0
2018-Jul-16 16:27N 32°08' W 081°08'0 0.0
2018-Jul-16 15:57N 32°08' W 081°08'0 0.0
2018-Jul-16 15:27N 32°08' W 081°08'0 0.0
2018-Jul-16 14:57N 32°08' W 081°08'0 0.0
2018-Jul-16 14:27N 32°08' W 081°08'0 0.0
2018-Jul-16 13:57N 32°08' W 081°08'0 0.0
2018-Jul-16 13:27N 32°08' W 081°08'0 0.0
2018-Jul-16 12:57N 32°08' W 081°08'0 0.0
2018-Jul-16 12:27N 32°08' W 081°08'0 0.0
2018-Jul-16 11:57N 32°08' W 081°08'0 0.0
2018-Jul-16 11:27N 32°08' W 081°08'0 0.0
2018-Jul-16 10:57N 32°08' W 081°08'0 0.0
2018-Jul-16 10:27N 32°08' W 081°08'0 0.0
2018-Jul-16 09:57N 32°08' W 081°08'0 0.0
2018-Jul-16 09:21N 32°08' W 081°08'0 0.0
2018-Jul-16 08:57N 32°08' W 081°08'0 0.0
2018-Jul-16 08:27N 32°08' W 081°08'0 0.0
2018-Jul-16 07:51N 32°08' W 081°08'0 0.0
2018-Jul-16 07:27N 32°08' W 081°08'0 0.0
2018-Jul-16 06:57N 32°08' W 081°08'0 0.0
2018-Jul-16 06:27N 32°08' W 081°08'0 0.0
2018-Jul-16 05:57N 32°08' W 081°08'0 0.0
2018-Jul-16 05:27N 32°08' W 081°08'0 0.0
2018-Jul-16 04:57N 32°08' W 081°08'0 0.0
2018-Jul-16 04:27N 32°08' W 081°08'0 0.0
2018-Jul-16 03:57N 32°08' W 081°08'0 0.0
2018-Jul-16 03:27N 32°08' W 081°08'0 0.0
2018-Jul-16 02:57N 32°08' W 081°08'0 0.0
2018-Jul-16 02:27N 32°08' W 081°08'0 0.0
2018-Jul-16 01:57N 32°08' W 081°08'0 0.0
2018-Jul-16 01:21N 32°08' W 081°08'0 0.0
2018-Jul-16 00:57N 32°08' W 081°08'0 0.0
2018-Jul-16 00:27N 32°08' W 081°08'0 0.0
2018-Jul-15 23:57N 32°08' W 081°08'0 0.0
2018-Jul-15 23:28N 32°08' W 081°08'0 0.1
2018-Jul-15 23:00N 32°08' W 081°08'0 0.4
2018-Jul-15 22:30N 32°08' W 081°08'2 4.3
2018-Jul-15 21:58N 32°06' W 081°07'2 5.1
2018-Jul-15 21:30N 32°05' W 081°04'4 7.2
2018-Jul-15 21:00N 32°06' W 080°60'5 9.6
2018-Jul-15 20:30N 32°03' W 080°56'3 6.5
2018-Jul-15 20:00N 32°02' W 080°52'510.1
2018-Jul-15 19:30N 31°60' W 080°47'713.5
2018-Jul-15 19:00N 31°57' W 080°40'5 9.2
2018-Jul-15 18:30N 31°56' W 080°34'612.4
2018-Jul-15 18:01N 31°57' W 080°27'714.7
2018-Jul-15 17:30N 31°59' W 080°19'815.0
2018-Jul-15 16:58N 32°01' W 080°09'715.1
2018-Jul-15 16:30N 32°02' W 080°01'915.4
2018-Jul-15 15:56N 32°04' W 079°51'715.7
2018-Jul-15 15:29N 32°05' W 079°43'915.8
2018-Jul-15 14:53N 32°07' W 079°32'815.7
2018-Jul-15 14:24N 32°08' W 079°23'915.6
2018-Jul-15 13:49N 32°10' W 079°13'24817.9
2018-Jul-14 23:59N 34°42' W 075°18'817.2
2018-Jul-14 23:30N 34°48' W 075°11'13613.6
2018-Jul-14 13:27N 36°57' W 076°03'715.0
2018-Jul-14 13:00N 36°60' W 076°11'612.6
2018-Jul-14 12:30N 36°59' W 076°19'4 8.6
2018-Jul-14 12:00N 36°55' W 076°20'3 5.2
2018-Jul-14 11:30N 36°52' W 076°21'0 0.1
2018-Jul-14 11:00N 36°52' W 076°21'0 0.0
2018-Jul-14 10:30N 36°52' W 076°21'0 0.0
2018-Jul-14 10:00N 36°52' W 076°21'0 0.0
2018-Jul-14 09:30N 36°52' W 076°21'0 0.0
2018-Jul-14 09:00N 36°52' W 076°21'0 0.0
2018-Jul-14 08:30N 36°52' W 076°21'0 0.0
2018-Jul-14 08:01N 36°52' W 076°21'0 0.0
2018-Jul-14 07:30N 36°52' W 076°21'0 0.0
2018-Jul-14 07:00N 36°52' W 076°21'0 0.0
2018-Jul-14 06:30N 36°52' W 076°21'0 0.0
2018-Jul-14 06:00N 36°52' W 076°21'0 0.0
2018-Jul-14 05:30N 36°52' W 076°21'0 0.0
2018-Jul-14 05:00N 36°52' W 076°21'0 0.0
2018-Jul-14 04:30N 36°52' W 076°21'0 0.0
2018-Jul-14 04:00N 36°52' W 076°21'0 0.0
2018-Jul-14 03:30N 36°52' W 076°21'0 0.0
2018-Jul-14 03:00N 36°52' W 076°21'0 0.0
2018-Jul-14 02:30N 36°52' W 076°21'0 0.0
2018-Jul-14 02:00N 36°52' W 076°21'0 0.0
2018-Jul-14 01:30N 36°52' W 076°21'0 0.0
2018-Jul-14 01:00N 36°52' W 076°21'0 0.0
2018-Jul-14 00:30N 36°52' W 076°21'0 0.0
2018-Jul-14 00:00N 36°52' W 076°21'0 0.0
2018-Jul-13 23:30N 36°52' W 076°21'0 0.0
2018-Jul-13 23:00N 36°52' W 076°21'0 0.0
2018-Jul-13 22:30N 36°52' W 076°21'0 0.0
2018-Jul-13 22:00N 36°52' W 076°21'0 0.0
2018-Jul-13 21:30N 36°52' W 076°21'0 0.0
2018-Jul-13 21:00N 36°52' W 076°21'0 0.0
2018-Jul-13 20:30N 36°52' W 076°21'0 0.0
2018-Jul-13 20:00N 36°52' W 076°21'0 0.0
2018-Jul-13 19:30N 36°52' W 076°21'0 0.0
2018-Jul-13 19:00N 36°52' W 076°21'0 0.0
2018-Jul-13 18:30N 36°52' W 076°21'0 0.0
2018-Jul-13 18:00N 36°52' W 076°21'0 0.0
2018-Jul-13 17:30N 36°52' W 076°21'0 0.0
2018-Jul-13 16:59N 36°52' W 076°21'0 0.0
2018-Jul-13 16:19N 36°52' W 076°21'0 0.0
2018-Jul-13 16:00N 36°52' W 076°21'0 0.0
2018-Jul-13 15:27N 36°52' W 076°21'0 0.0
2018-Jul-13 15:00N 36°52' W 076°21'0 0.0
2018-Jul-13 14:00N 36°52' W 076°21'0 0.0
2018-Jul-13 13:30N 36°52' W 076°21'0 0.0
2018-Jul-13 13:00N 36°52' W 076°21'0 0.0
2018-Jul-13 12:30N 36°52' W 076°21'0 0.0
2018-Jul-13 12:00N 36°52' W 076°21'0 0.0
2018-Jul-13 11:30N 36°52' W 076°21'0 0.0
2018-Jul-13 10:51N 36°52' W 076°21'0 0.0
2018-Jul-13 10:30N 36°52' W 076°21'0 0.0
2018-Jul-13 10:00N 36°52' W 076°21'0 0.0
2018-Jul-13 09:30N 36°52' W 076°21'0 0.0
2018-Jul-13 09:00N 36°52' W 076°21'0 0.0
2018-Jul-13 08:30N 36°52' W 076°21'0 0.0
2018-Jul-13 08:00N 36°52' W 076°21'0 0.0
2018-Jul-13 07:30N 36°52' W 076°21'0 0.0
2018-Jul-13 07:00N 36°52' W 076°21'0 0.0
2018-Jul-13 06:30N 36°52' W 076°21'0 0.0
2018-Jul-13 06:00N 36°52' W 076°21'0 0.0
2018-Jul-13 05:30N 36°52' W 076°21'0 0.0
2018-Jul-13 05:00N 36°52' W 076°21'0 0.0
2018-Jul-13 04:30N 36°52' W 076°21'0 0.0
2018-Jul-13 04:00N 36°52' W 076°21'0 0.1
2018-Jul-13 03:30N 36°52' W 076°21'1 2.7
2018-Jul-13 03:00N 36°54' W 076°20'4 8.5
2018-Jul-13 02:30N 36°58' W 076°20'612.4
2018-Jul-13 02:00N 37°00' W 076°13'815.6
2018-Jul-13 01:30N 36°58' W 076°04'713.2
2018-Jul-13 01:00N 36°56' W 075°56'4 7.3
2018-Jul-13 00:31N 36°53' W 075°52'79 6.3
2018-Jul-12 11:58N 37°50' W 074°43'2015.4
2018-Jul-12 10:38N 38°08' W 074°30'2415.5
2018-Jul-12 09:07N 38°28' W 074°14'415.4
2018-Jul-12 08:52N 38°32' W 074°13'615.4
2018-Jul-12 08:30N 38°37' W 074°11'815.3
2018-Jul-12 08:00N 38°44' W 074°08'815.3
2018-Jul-12 07:30N 38°52' W 074°06'815.5
2018-Jul-12 07:00N 38°59' W 074°03'815.5
2018-Jul-12 06:30N 39°07' W 074°00'815.4
2018-Jul-12 06:00N 39°14' W 073°57'815.6
2018-Jul-12 05:30N 39°22' W 073°55'815.7
2018-Jul-12 05:00N 39°29' W 073°55'815.5
2018-Jul-12 04:30N 39°37' W 073°54'815.4
2018-Jul-12 03:59N 39°45' W 073°53'715.5
2018-Jul-12 03:30N 39°53' W 073°52'815.7
2018-Jul-12 03:00N 40°01' W 073°51'815.5
2018-Jul-12 02:30N 40°08' W 073°50'1115.7
2018-Jul-12 01:48N 40°19' W 073°49'415.5
2018-Jul-12 01:30N 40°24' W 073°49'611.0
2018-Jul-12 00:59N 40°28' W 073°53'815.5
2018-Jul-12 00:30N 40°32' W 074°01'713.4
2018-Jul-12 00:00N 40°39' W 074°04'4 7.8
2018-Jul-11 23:30N 40°39' W 074°09'1 2.8
2018-Jul-11 23:00N 40°40' W 074°08'0 0.3
2018-Jul-11 22:30N 40°40' W 074°09'0 0.0
2018-Jul-11 22:00N 40°40' W 074°09'0 0.0
2018-Jul-11 21:30N 40°40' W 074°09'0 0.0
2018-Jul-11 21:00N 40°40' W 074°09'0 0.0
2018-Jul-11 20:30N 40°40' W 074°09'0 0.0
2018-Jul-11 20:00N 40°40' W 074°09'0 0.0
2018-Jul-11 19:30N 40°40' W 074°09'0 0.0
2018-Jul-11 19:00N 40°40' W 074°09'0 0.0
2018-Jul-11 18:30N 40°40' W 074°09'0 0.0
2018-Jul-11 18:00N 40°40' W 074°09'0 0.0
2018-Jul-11 17:31N 40°40' W 074°09'0 0.0
2018-Jul-11 17:00N 40°40' W 074°09'0 0.0
2018-Jul-11 16:30N 40°40' W 074°09'0 0.0
2018-Jul-11 16:00N 40°40' W 074°09'0 0.0
2018-Jul-11 15:30N 40°40' W 074°09'0 0.0
2018-Jul-11 15:00N 40°40' W 074°09'0 0.0
2018-Jul-11 14:30N 40°40' W 074°09'0 0.0
2018-Jul-11 14:00N 40°40' W 074°09'0 0.0
2018-Jul-11 13:30N 40°40' W 074°09'0 0.0
2018-Jul-11 13:00N 40°40' W 074°09'0 0.0
2018-Jul-11 12:30N 40°40' W 074°09'0 0.0
2018-Jul-11 12:00N 40°40' W 074°09'0 0.0
2018-Jul-11 11:30N 40°40' W 074°09'0 0.0
2018-Jul-11 11:00N 40°40' W 074°09'0 0.0
2018-Jul-11 10:30N 40°40' W 074°09'0 0.0
2018-Jul-11 10:00N 40°40' W 074°09'0 0.0
2018-Jul-11 09:30N 40°40' W 074°09'0 0.0
2018-Jul-11 09:00N 40°40' W 074°09'0 0.0
2018-Jul-11 08:30N 40°40' W 074°09'0 0.0
2018-Jul-11 08:00N 40°40' W 074°09'0 0.0
2018-Jul-11 07:30N 40°40' W 074°09'0 0.0
2018-Jul-11 07:00N 40°40' W 074°09'0 0.0
2018-Jul-11 06:30N 40°40' W 074°09'0 0.0
2018-Jul-11 06:00N 40°40' W 074°09'0 0.0
2018-Jul-11 05:30N 40°40' W 074°09'0 0.0
2018-Jul-11 05:00N 40°40' W 074°09'0 0.0
2018-Jul-11 04:30N 40°40' W 074°09'0 0.0
2018-Jul-11 04:00N 40°40' W 074°09'0 0.0
2018-Jul-11 03:30N 40°40' W 074°09'0 0.0
2018-Jul-11 03:00N 40°40' W 074°09'0 0.0
2018-Jul-11 02:30N 40°40' W 074°09'0 0.0
2018-Jul-11 02:00N 40°40' W 074°09'0 0.0
2018-Jul-11 01:30N 40°40' W 074°09'0 0.0
2018-Jul-11 01:00N 40°40' W 074°09'0 0.0
2018-Jul-11 00:30N 40°40' W 074°09'0 0.0
2018-Jul-11 00:00N 40°40' W 074°09'  

Dump ship's entire track history